createdAt,value
2022-11-09T00:04:22.199Z,1.20
2022-11-09T00:09:47.233Z,0.87
2022-11-09T00:15:08.870Z,1.14
2022-11-09T00:20:32.547Z,1.06
2022-11-09T00:25:59.583Z,1.07
2022-11-09T00:31:21.588Z,1.50
2022-11-09T00:36:47.776Z,1.38
2022-11-09T00:42:15.107Z,1.50
2022-11-09T00:47:40.156Z,1.67
2022-11-09T00:53:04.801Z,1.61
2022-11-09T00:58:31.509Z,1.78
2022-11-09T01:03:52.348Z,1.98
2022-11-09T01:09:16.887Z,2.30
2022-11-09T01:14:41.366Z,2.42
2022-11-09T01:20:03.509Z,2.27
2022-11-09T01:25:27.545Z,2.32
2022-11-09T01:30:53.881Z,2.39
2022-11-09T01:36:22.813Z,2.45
2022-11-09T01:41:46.707Z,2.55
2022-11-09T01:47:11.722Z,2.85
2022-11-09T01:52:36.357Z,2.62
2022-11-09T01:58:03.613Z,2.75
2022-11-09T02:03:30.170Z,2.52
2022-11-09T02:08:51.810Z,2.48
2022-11-09T02:14:16.023Z,2.83
2022-11-09T02:19:41.596Z,2.97
2022-11-09T02:25:03.386Z,2.69
2022-11-09T02:30:26.999Z,3.01
2022-11-09T02:35:50.978Z,2.78
2022-11-09T02:41:18.309Z,2.63
2022-11-09T02:46:41.248Z,2.26
2022-11-09T02:52:03.105Z,2.15
2022-11-09T02:57:24.778Z,2.18
2022-11-09T03:02:49.984Z,2.17
2022-11-09T03:08:16.212Z,2.32
2022-11-09T03:13:44.156Z,2.04
2022-11-09T03:19:07.050Z,2.10
2022-11-09T03:24:30.578Z,2.31
2022-11-09T03:29:57.519Z,2.01
2022-11-09T03:35:26.629Z,2.03
2022-11-09T03:40:53.529Z,1.63
2022-11-09T03:46:16.877Z,1.92
2022-11-09T03:51:44.324Z,1.94
2022-11-09T03:57:10.488Z,1.71
2022-11-09T04:02:37.160Z,1.99
2022-11-09T04:08:01.884Z,1.97
2022-11-09T04:13:26.560Z,2.20
2022-11-09T04:18:50.709Z,2.34
2022-11-09T04:24:17.808Z,2.72
2022-11-09T04:29:41.093Z,2.92
2022-11-09T04:35:07.251Z,3.32
2022-11-09T04:40:34.545Z,3.68
2022-11-09T04:45:56.292Z,3.35
2022-11-09T04:51:23.553Z,3.18
2022-11-09T04:56:47.610Z,3.38
2022-11-09T05:02:13.749Z,4.00
2022-11-09T05:07:40.815Z,4.06
2022-11-09T05:13:04.866Z,4.51
2022-11-09T05:18:31.771Z,4.59
2022-11-09T05:23:58.747Z,5.08
2022-11-09T05:29:25.509Z,4.30
2022-11-09T05:34:47.919Z,4.83
2022-11-09T05:40:15.012Z,4.51
2022-11-09T05:45:43.367Z,4.10
2022-11-09T05:51:08.714Z,4.00
2022-11-09T05:56:36.800Z,3.46
2022-11-09T06:01:58.023Z,3.49
2022-11-09T06:07:25.642Z,3.12
2022-11-09T06:12:50.651Z,3.07
2022-11-09T06:18:18.351Z,3.00
2022-11-09T06:23:41.390Z,2.30
2022-11-09T06:29:03.237Z,2.33
2022-11-09T06:34:27.551Z,2.32
2022-11-09T06:39:52.245Z,2.33
2022-11-09T06:45:18.953Z,2.38
2022-11-09T06:50:43.111Z,2.69
2022-11-09T06:56:09.438Z,1.93
2022-11-09T07:01:36.228Z,1.49
2022-11-09T07:07:03.316Z,0.98
2022-11-09T07:12:27.938Z,1.13
2022-11-09T07:17:52.646Z,0.94
2022-11-09T07:23:15.459Z,0.88
2022-11-09T07:28:41.217Z,0.63
2022-11-09T07:34:07.464Z,0.75
2022-11-09T07:39:29.277Z,0.63
2022-11-09T07:44:53.333Z,0.45
2022-11-09T07:50:17.773Z,0.51
2022-11-09T07:55:43.054Z,0.45
2022-11-09T08:01:15.164Z,0.38
2022-11-09T08:06:36.934Z,0.38
2022-11-09T08:11:58.746Z,0.53
2022-11-09T08:17:25.553Z,0.50
2022-11-09T08:22:47.237Z,0.60
2022-11-09T08:28:15.230Z,0.69
2022-11-09T08:33:41.308Z,0.44
2022-11-09T08:39:07.209Z,0.70
2022-11-09T08:44:28.964Z,0.76
2022-11-09T08:49:56.940Z,0.64
2022-11-09T08:55:21.977Z,0.73
2022-11-09T09:00:46.809Z,0.58
2022-11-09T09:06:08.243Z,0.42
2022-11-09T09:11:35.433Z,0.50
2022-11-09T09:17:03.217Z,0.77
2022-11-09T09:22:27.779Z,0.62
2022-11-09T09:27:54.571Z,0.68
2022-11-09T09:33:22.360Z,0.65
2022-11-09T09:38:44.139Z,0.75
2022-11-09T09:44:09.313Z,0.61
2022-11-09T09:49:37.210Z,0.71
2022-11-09T09:55:01.136Z,0.94
2022-11-09T10:00:24.934Z,0.88
2022-11-09T10:05:51.463Z,0.74
2022-11-09T10:11:18.819Z,0.70
2022-11-09T10:16:48.435Z,0.67
2022-11-09T10:22:16.069Z,0.84
2022-11-09T10:27:45.957Z,0.66
2022-11-09T10:33:11.984Z,0.63
2022-11-09T10:38:38.111Z,0.82
2022-11-09T10:44:03.316Z,0.54
2022-11-09T10:49:31.481Z,0.57
2022-11-09T10:54:58.193Z,0.49
2022-11-09T11:00:39.458Z,0.61
2022-11-09T11:06:15.400Z,0.42
2022-11-09T11:11:41.197Z,0.67
2022-11-09T11:17:05.053Z,0.57
2022-11-09T11:22:36.991Z,0.38
2022-11-09T11:27:59.233Z,0.59
2022-11-09T11:33:26.500Z,0.69
2022-11-09T11:38:48.265Z,0.48
2022-11-09T11:44:12.039Z,0.47
2022-11-09T11:49:37.285Z,0.57
2022-11-09T11:55:06.648Z,0.47
2022-11-09T12:00:40.276Z,0.58
2022-11-09T12:06:07.930Z,0.56
2022-11-09T12:11:43.890Z,0.60
2022-11-09T12:17:14.323Z,0.70
2022-11-09T12:22:37.113Z,0.61
2022-11-09T12:28:04.891Z,0.62
2022-11-09T12:33:42.829Z,0.60
2022-11-09T12:39:03.279Z,0.67
2022-11-09T12:44:26.429Z,0.68
2022-11-09T12:49:51.176Z,0.58
2022-11-09T12:55:17.499Z,0.72
2022-11-09T13:00:45.368Z,0.75
2022-11-09T13:06:13.315Z,0.73
2022-11-09T13:11:37.596Z,0.89
2022-11-09T13:16:59.634Z,0.77
2022-11-09T13:22:36.603Z,0.66
2022-11-09T13:28:14.186Z,0.68
2022-11-09T13:34:03.687Z,0.81
2022-11-09T13:40:03.908Z,0.57
2022-11-09T13:45:59.316Z,0.77
2022-11-09T13:51:33.613Z,0.67
2022-11-09T13:57:05.246Z,0.91
2022-11-09T14:02:27.767Z,0.71
2022-11-09T14:07:49.960Z,0.77
2022-11-09T14:13:17.385Z,0.83
2022-11-09T14:18:58.599Z,0.81
2022-11-09T14:24:22.605Z,0.94
2022-11-09T14:29:49.231Z,0.75
2022-11-09T14:35:15.687Z,0.92
2022-11-09T14:40:39.583Z,0.81
2022-11-09T14:46:01.842Z,0.96
2022-11-09T14:51:31.800Z,0.72
2022-11-09T14:56:59.169Z,0.92
2022-11-09T15:02:24.463Z,1.00
2022-11-09T15:07:51.453Z,1.20
2022-11-09T15:13:12.931Z,0.82
2022-11-09T15:18:39.023Z,0.80
2022-11-09T15:24:05.982Z,0.83
2022-11-09T15:29:35.760Z,0.76
2022-11-09T15:35:02.344Z,0.78
2022-11-09T15:40:36.036Z,0.70
2022-11-09T15:46:03.339Z,0.86
2022-11-09T15:51:25.582Z,0.71
2022-11-09T15:56:47.398Z,0.64
2022-11-09T16:02:12.767Z,0.74
2022-11-09T16:07:39.095Z,0.71
2022-11-09T16:13:10.180Z,0.74
2022-11-09T16:18:35.614Z,0.78
2022-11-09T16:24:02.573Z,0.81
2022-11-09T16:29:27.138Z,1.24
2022-11-09T16:35:15.318Z,1.10
2022-11-09T16:40:17.296Z,0.97
2022-11-09T16:45:43.691Z,1.12
2022-11-09T16:51:10.805Z,0.78
2022-11-09T16:56:37.305Z,0.96
2022-11-09T17:02:02.718Z,1.00
2022-11-09T17:07:24.530Z,0.82
2022-11-09T17:12:51.263Z,1.00
2022-11-09T17:18:19.802Z,1.00
2022-11-09T17:23:40.920Z,1.05
2022-11-09T17:29:09.012Z,1.09
2022-11-09T17:34:34.972Z,1.15
2022-11-09T17:40:03.127Z,1.15
2022-11-09T17:45:26.958Z,1.03
2022-11-09T17:50:52.548Z,1.36
2022-11-09T17:56:19.838Z,1.33
2022-11-09T18:01:47.307Z,1.27
2022-11-09T18:07:09.573Z,1.35
2022-11-09T18:12:31.647Z,1.16
2022-11-09T18:17:56.047Z,2.06
2022-11-09T18:23:21.558Z,2.75
2022-11-09T18:28:47.921Z,1.77
2022-11-09T18:34:16.894Z,1.93
2022-11-09T18:39:43.873Z,2.05
2022-11-09T18:45:11.618Z,1.93
2022-11-09T18:50:35.216Z,1.61
2022-11-09T18:56:02.198Z,1.32
2022-11-09T19:01:21.999Z,1.27
2022-11-09T19:06:47.815Z,1.38
2022-11-09T19:12:16.451Z,1.32
2022-11-09T19:17:44.103Z,1.25
2022-11-09T19:23:11.579Z,1.16
2022-11-09T19:28:38.941Z,1.00
2022-11-09T19:34:06.069Z,1.15
2022-11-09T19:39:35.380Z,1.08
2022-11-09T19:45:01.181Z,0.93
2022-11-09T19:50:30.918Z,0.88
2022-11-09T19:55:58.790Z,1.16
2022-11-09T20:01:21.525Z,0.92
2022-11-09T20:06:48.994Z,1.10
2022-11-09T20:12:16.282Z,0.89
2022-11-09T20:17:39.279Z,0.94
2022-11-09T20:23:02.724Z,1.09
2022-11-09T20:28:28.473Z,1.26
2022-11-09T20:33:55.289Z,1.22
2022-11-09T20:39:22.022Z,1.05
2022-11-09T20:44:47.008Z,0.88
2022-11-09T20:50:13.649Z,1.06
2022-11-09T20:55:40.233Z,1.43
2022-11-09T21:01:04.368Z,1.22
2022-11-09T21:06:30.388Z,1.26
2022-11-09T21:11:56.858Z,1.04
2022-11-09T21:17:24.530Z,0.87
2022-11-09T21:22:51.898Z,1.78
2022-11-09T21:28:17.297Z,1.31
2022-11-09T21:33:44.460Z,1.08
2022-11-09T21:39:13.251Z,1.34
2022-11-09T21:44:39.765Z,1.28
2022-11-09T21:50:11.264Z,1.09
2022-11-09T21:55:34.122Z,1.78
2022-11-09T22:00:59.251Z,1.10
2022-11-09T22:06:23.073Z,1.17
2022-11-09T22:11:48.086Z,1.05
2022-11-09T22:17:14.887Z,1.32
2022-11-09T22:22:39.699Z,1.02
2022-11-09T22:28:06.374Z,1.03
2022-11-09T22:33:34.336Z,1.18
2022-11-09T22:38:55.646Z,1.01
2022-11-09T22:44:18.311Z,0.95
2022-11-09T22:49:40.060Z,1.00
2022-11-09T22:55:01.779Z,0.86
2022-11-09T23:00:24.848Z,1.07
2022-11-09T23:05:47.370Z,1.03
2022-11-09T23:11:08.874Z,1.25
2022-11-09T23:16:30.546Z,1.34
2022-11-09T23:21:52.213Z,1.15
2022-11-09T23:27:15.441Z,1.16
2022-11-09T23:32:40.941Z,1.83
2022-11-09T23:38:06.105Z,1.83
2022-11-09T23:43:27.774Z,1.83
2022-11-09T23:48:54.452Z,2.13
2022-11-09T23:54:22.149Z,1.84
2022-11-09T23:59:45.933Z,2.29
